sensor_id;sensor_type;location;lat;lon;timestamp;P1;durP1;ratioP1;P2;durP2;ratioP2
6531;SDS011;3299;42.004;24.868;2023-04-01T00:01:54;7.65;;;3.55;;
6531;SDS011;3299;42.004;24.868;2023-04-01T00:04:19;6.05;;;4.35;;
6531;SDS011;3299;42.004;24.868;2023-04-01T00:06:45;7.75;;;4.18;;
6531;SDS011;3299;42.004;24.868;2023-04-01T00:09:12;6.88;;;4.03;;
6531;SDS011;3299;42.004;24.868;2023-04-01T00:11:38;5.93;;;3.88;;
6531;SDS011;3299;42.004;24.868;2023-04-01T00:14:03;7.30;;;4.45;;
6531;SDS011;3299;42.004;24.868;2023-04-01T00:16:29;4.53;;;3.70;;
6531;SDS011;3299;42.004;24.868;2023-04-01T00:18:55;6.07;;;4.05;;
6531;SDS011;3299;42.004;24.868;2023-04-01T00:21:21;4.13;;;3.72;;
6531;SDS011;3299;42.004;24.868;2023-04-01T00:23:47;4.55;;;3.97;;
6531;SDS011;3299;42.004;24.868;2023-04-01T00:26:13;6.18;;;3.45;;
6531;SDS011;3299;42.004;24.868;2023-04-01T00:28:42;6.07;;;3.75;;
6531;SDS011;3299;42.004;24.868;2023-04-01T00:31:08;4.72;;;4.20;;
6531;SDS011;3299;42.004;24.868;2023-04-01T00:33:35;5.10;;;3.70;;
6531;SDS011;3299;42.004;24.868;2023-04-01T00:36:07;8.75;;;4.38;;
6531;SDS011;3299;42.004;24.868;2023-04-01T00:38:35;5.18;;;3.50;;
6531;SDS011;3299;42.004;24.868;2023-04-01T00:41:01;3.95;;;3.45;;
6531;SDS011;3299;42.004;24.868;2023-04-01T00:43:26;5.68;;;4.05;;
6531;SDS011;3299;42.004;24.868;2023-04-01T00:45:51;4.85;;;3.83;;
6531;SDS011;3299;42.004;24.868;2023-04-01T00:48:18;7.28;;;3.28;;
6531;SDS011;3299;42.004;24.868;2023-04-01T00:50:58;3.92;;;3.28;;
6531;SDS011;3299;42.004;24.868;2023-04-01T00:53:28;5.60;;;3.38;;
6531;SDS011;3299;42.004;24.868;2023-04-01T00:55:57;5.25;;;3.30;;
6531;SDS011;3299;42.004;24.868;2023-04-01T00:58:26;6.15;;;3.15;;
6531;SDS011;3299;42.004;24.868;2023-04-01T01:00:56;4.80;;;4.03;;
6531;SDS011;3299;42.004;24.868;2023-04-01T01:03:23;14.45;;;4.95;;
6531;SDS011;3299;42.004;24.868;2023-04-01T01:11:06;3.58;;;2.80;;
6531;SDS011;3299;42.004;24.868;2023-04-01T01:13:41;5.60;;;3.28;;
6531;SDS011;3299;42.004;24.868;2023-04-01T01:16:23;4.43;;;3.17;;
6531;SDS011;3299;42.004;24.868;2023-04-01T01:19:06;5.00;;;2.97;;
6531;SDS011;3299;42.004;24.868;2023-04-01T01:29:59;9.25;;;3.50;;
6531;SDS011;3299;42.004;24.868;2023-04-01T01:35:37;4.90;;;3.53;;
6531;SDS011;3299;42.004;24.868;2023-04-01T01:38:08;4.80;;;3.72;;
6531;SDS011;3299;42.004;24.868;2023-04-01T01:40:38;3.38;;;3.05;;
6531;SDS011;3299;42.004;24.868;2023-04-01T01:43:08;7.38;;;3.30;;
6531;SDS011;3299;42.004;24.868;2023-04-01T01:45:36;5.25;;;3.95;;
6531;SDS011;3299;42.004;24.868;2023-04-01T01:48:07;5.97;;;4.03;;
6531;SDS011;3299;42.004;24.868;2023-04-01T01:50:34;7.70;;;4.13;;
6531;SDS011;3299;42.004;24.868;2023-04-01T01:53:08;6.97;;;4.25;;
6531;SDS011;3299;42.004;24.868;2023-04-01T01:55:36;6.47;;;4.72;;
6531;SDS011;3299;42.004;24.868;2023-04-01T01:58:27;8.70;;;5.43;;
6531;SDS011;3299;42.004;24.868;2023-04-01T02:00:50;8.07;;;5.00;;
6531;SDS011;3299;42.004;24.868;2023-04-01T02:03:21;7.55;;;4.97;;
6531;SDS011;3299;42.004;24.868;2023-04-01T02:05:50;9.85;;;5.68;;
6531;SDS011;3299;42.004;24.868;2023-04-01T02:08:25;6.00;;;5.40;;
6531;SDS011;3299;42.004;24.868;2023-04-01T02:10:57;8.73;;;5.18;;
6531;SDS011;3299;42.004;24.868;2023-04-01T02:16:25;8.48;;;5.47;;
6531;SDS011;3299;42.004;24.868;2023-04-01T02:18:55;6.82;;;5.65;;
6531;SDS011;3299;42.004;24.868;2023-04-01T02:21:23;8.13;;;5.30;;
6531;SDS011;3299;42.004;24.868;2023-04-01T02:23:51;6.68;;;5.20;;
6531;SDS011;3299;42.004;24.868;2023-04-01T02:26:19;6.40;;;4.80;;
6531;SDS011;3299;42.004;24.868;2023-04-01T02:28:45;4.68;;;4.20;;
6531;SDS011;3299;42.004;24.868;2023-04-01T02:31:13;6.45;;;4.50;;
6531;SDS011;3299;42.004;24.868;2023-04-01T02:33:40;4.68;;;4.32;;
6531;SDS011;3299;42.004;24.868;2023-04-01T02:36:06;6.65;;;4.93;;
6531;SDS011;3299;42.004;24.868;2023-04-01T02:38:35;10.02;;;5.35;;
6531;SDS011;3299;42.004;24.868;2023-04-01T02:41:02;5.25;;;3.65;;
6531;SDS011;3299;42.004;24.868;2023-04-01T02:43:28;4.32;;;3.53;;
6531;SDS011;3299;42.004;24.868;2023-04-01T02:45:53;6.35;;;3.97;;
6531;SDS011;3299;42.004;24.868;2023-04-01T02:48:19;4.22;;;3.83;;
6531;SDS011;3299;42.004;24.868;2023-04-01T02:50:45;3.78;;;3.47;;
6531;SDS011;3299;42.004;24.868;2023-04-01T02:53:10;6.00;;;3.75;;
6531;SDS011;3299;42.004;24.868;2023-04-01T02:55:37;7.97;;;4.43;;
6531;SDS011;3299;42.004;24.868;2023-04-01T02:58:03;6.40;;;4.40;;
6531;SDS011;3299;42.004;24.868;2023-04-01T03:00:28;7.05;;;3.78;;
6531;SDS011;3299;42.004;24.868;2023-04-01T03:02:54;6.63;;;3.75;;
6531;SDS011;3299;42.004;24.868;2023-04-01T03:05:20;4.47;;;4.07;;
6531;SDS011;3299;42.004;24.868;2023-04-01T03:07:46;4.05;;;3.58;;
6531;SDS011;3299;42.004;24.868;2023-04-01T03:10:11;5.90;;;3.75;;
6531;SDS011;3299;42.004;24.868;2023-04-01T03:12:37;5.97;;;3.80;;
6531;SDS011;3299;42.004;24.868;2023-04-01T03:15:03;4.82;;;4.38;;
6531;SDS011;3299;42.004;24.868;2023-04-01T03:17:28;5.70;;;3.30;;
6531;SDS011;3299;42.004;24.868;2023-04-01T03:19:54;5.05;;;3.72;;
6531;SDS011;3299;42.004;24.868;2023-04-01T03:22:19;6.60;;;3.65;;
6531;SDS011;3299;42.004;24.868;2023-04-01T03:24:46;7.25;;;3.92;;
6531;SDS011;3299;42.004;24.868;2023-04-01T03:27:12;5.30;;;3.08;;
6531;SDS011;3299;42.004;24.868;2023-04-01T03:29:38;6.13;;;3.33;;
6531;SDS011;3299;42.004;24.868;2023-04-01T03:32:04;5.50;;;3.40;;
6531;SDS011;3299;42.004;24.868;2023-04-01T03:34:30;8.13;;;3.03;;
6531;SDS011;3299;42.004;24.868;2023-04-01T03:36:56;3.20;;;2.90;;
6531;SDS011;3299;42.004;24.868;2023-04-01T03:39:22;4.75;;;3.33;;
6531;SDS011;3299;42.004;24.868;2023-04-01T03:41:47;8.07;;;3.33;;
6531;SDS011;3299;42.004;24.868;2023-04-01T03:44:13;4.45;;;3.08;;
6531;SDS011;3299;42.004;24.868;2023-04-01T03:46:38;5.20;;;3.13;;
6531;SDS011;3299;42.004;24.868;2023-04-01T03:49:10;3.72;;;2.90;;
6531;SDS011;3299;42.004;24.868;2023-04-01T03:51:40;5.13;;;3.63;;
6531;SDS011;3299;42.004;24.868;2023-04-01T03:54:08;3.35;;;3.15;;
6531;SDS011;3299;42.004;24.868;2023-04-01T03:56:34;8.95;;;4.30;;
6531;SDS011;3299;42.004;24.868;2023-04-01T03:59:03;6.93;;;4.80;;
6531;SDS011;3299;42.004;24.868;2023-04-01T04:01:31;5.13;;;3.53;;
6531;SDS011;3299;42.004;24.868;2023-04-01T04:03:56;7.53;;;3.65;;
6531;SDS011;3299;42.004;24.868;2023-04-01T04:06:23;4.43;;;3.65;;
6531;SDS011;3299;42.004;24.868;2023-04-01T04:08:49;4.40;;;3.40;;
6531;SDS011;3299;42.004;24.868;2023-04-01T04:11:14;8.40;;;3.85;;
6531;SDS011;3299;42.004;24.868;2023-04-01T04:13:41;5.20;;;3.95;;
6531;SDS011;3299;42.004;24.868;2023-04-01T04:16:07;6.22;;;5.07;;
6531;SDS011;3299;42.004;24.868;2023-04-01T04:18:34;8.95;;;5.18;;
6531;SDS011;3299;42.004;24.868;2023-04-01T04:21:01;6.85;;;5.85;;
6531;SDS011;3299;42.004;24.868;2023-04-01T04:23:26;8.07;;;4.97;;
6531;SDS011;3299;42.004;24.868;2023-04-01T04:25:55;8.02;;;4.95;;
6531;SDS011;3299;42.004;24.868;2023-04-01T04:28:29;6.00;;;4.22;;
6531;SDS011;3299;42.004;24.868;2023-04-01T04:30:55;6.10;;;3.80;;
6531;SDS011;3299;42.004;24.868;2023-04-01T04:33:21;6.88;;;3.80;;
6531;SDS011;3299;42.004;24.868;2023-04-01T04:35:47;5.32;;;4.03;;
6531;SDS011;3299;42.004;24.868;2023-04-01T04:38:13;4.88;;;4.15;;
6531;SDS011;3299;42.004;24.868;2023-04-01T04:40:39;5.25;;;3.40;;
6531;SDS011;3299;42.004;24.868;2023-04-01T04:43:05;6.78;;;3.30;;
6531;SDS011;3299;42.004;24.868;2023-04-01T04:45:30;3.97;;;2.90;;
6531;SDS011;3299;42.004;24.868;2023-04-01T04:47:56;6.10;;;3.10;;
6531;SDS011;3299;42.004;24.868;2023-04-01T04:50:22;6.25;;;2.90;;
6531;SDS011;3299;42.004;24.868;2023-04-01T04:52:48;4.53;;;2.72;;
6531;SDS011;3299;42.004;24.868;2023-04-01T04:55:14;5.90;;;3.78;;
6531;SDS011;3299;42.004;24.868;2023-04-01T04:57:40;4.30;;;3.78;;
6531;SDS011;3299;42.004;24.868;2023-04-01T05:00:06;4.85;;;3.25;;
6531;SDS011;3299;42.004;24.868;2023-04-01T05:02:32;7.38;;;2.75;;
6531;SDS011;3299;42.004;24.868;2023-04-01T05:04:58;2.60;;;2.20;;
6531;SDS011;3299;42.004;24.868;2023-04-01T05:07:23;5.47;;;2.30;;
6531;SDS011;3299;42.004;24.868;2023-04-01T05:09:48;5.20;;;2.33;;
6531;SDS011;3299;42.004;24.868;2023-04-01T05:12:14;2.30;;;2.00;;
6531;SDS011;3299;42.004;24.868;2023-04-01T05:14:42;4.22;;;2.10;;
6531;SDS011;3299;42.004;24.868;2023-04-01T05:17:08;7.03;;;3.90;;
6531;SDS011;3299;42.004;24.868;2023-04-01T05:19:35;7.55;;;4.25;;
6531;SDS011;3299;42.004;24.868;2023-04-01T05:22:01;9.32;;;5.18;;
6531;SDS011;3299;42.004;24.868;2023-04-01T05:24:26;7.75;;;5.70;;
6531;SDS011;3299;42.004;24.868;2023-04-01T05:26:52;11.02;;;6.47;;
6531;SDS011;3299;42.004;24.868;2023-04-01T05:29:17;10.43;;;5.95;;
6531;SDS011;3299;42.004;24.868;2023-04-01T05:31:42;7.47;;;5.63;;
6531;SDS011;3299;42.004;24.868;2023-04-01T05:34:08;6.78;;;5.68;;
6531;SDS011;3299;42.004;24.868;2023-04-01T05:36:33;13.48;;;7.28;;
6531;SDS011;3299;42.004;24.868;2023-04-01T05:38:59;7.68;;;6.53;;
6531;SDS011;3299;42.004;24.868;2023-04-01T05:41:24;16.92;;;7.68;;
6531;SDS011;3299;42.004;24.868;2023-04-01T05:43:50;12.73;;;8.43;;
6531;SDS011;3299;42.004;24.868;2023-04-01T05:46:15;9.77;;;7.97;;
6531;SDS011;3299;42.004;24.868;2023-04-01T05:48:40;13.32;;;7.90;;
6531;SDS011;3299;42.004;24.868;2023-04-01T05:51:06;18.60;;;7.85;;
6531;SDS011;3299;42.004;24.868;2023-04-01T05:53:31;14.20;;;8.02;;
6531;SDS011;3299;42.004;24.868;2023-04-01T05:56:01;17.52;;;7.38;;
6531;SDS011;3299;42.004;24.868;2023-04-01T05:58:35;14.43;;;8.77;;
6531;SDS011;3299;42.004;24.868;2023-04-01T06:01:05;14.60;;;8.55;;
6531;SDS011;3299;42.004;24.868;2023-04-01T06:03:32;13.85;;;9.52;;
6531;SDS011;3299;42.004;24.868;2023-04-01T06:05:58;16.35;;;9.15;;
6531;SDS011;3299;42.004;24.868;2023-04-01T06:08:24;18.95;;;9.88;;
6531;SDS011;3299;42.004;24.868;2023-04-01T06:16:58;32.92;;;12.32;;
6531;SDS011;3299;42.004;24.868;2023-04-01T06:30:41;30.30;;;14.45;;
6531;SDS011;3299;42.004;24.868;2023-04-01T06:38:41;18.45;;;10.40;;
6531;SDS011;3299;42.004;24.868;2023-04-01T06:45:04;24.67;;;11.40;;
6531;SDS011;3299;42.004;24.868;2023-04-01T06:53:19;14.32;;;7.90;;
6531;SDS011;3299;42.004;24.868;2023-04-01T06:55:59;16.63;;;7.47;;
6531;SDS011;3299;42.004;24.868;2023-04-01T06:58:46;12.48;;;7.35;;
6531;SDS011;3299;42.004;24.868;2023-04-01T07:04:29;10.38;;;5.88;;
6531;SDS011;3299;42.004;24.868;2023-04-01T07:06:58;10.63;;;6.60;;
6531;SDS011;3299;42.004;24.868;2023-04-01T07:09:37;14.23;;;9.05;;
6531;SDS011;3299;42.004;24.868;2023-04-01T07:12:12;8.85;;;7.00;;
6531;SDS011;3299;42.004;24.868;2023-04-01T07:14:44;10.18;;;7.35;;
6531;SDS011;3299;42.004;24.868;2023-04-01T07:17:17;9.10;;;6.50;;
6531;SDS011;3299;42.004;24.868;2023-04-01T07:25:25;12.90;;;5.43;;
6531;SDS011;3299;42.004;24.868;2023-04-01T07:28:03;9.45;;;5.95;;
6531;SDS011;3299;42.004;24.868;2023-04-01T07:30:39;7.45;;;5.10;;
6531;SDS011;3299;42.004;24.868;2023-04-01T07:33:26;7.40;;;5.82;;
6531;SDS011;3299;42.004;24.868;2023-04-01T07:49:07;9.82;;;6.38;;
6531;SDS011;3299;42.004;24.868;2023-04-01T07:51:51;9.23;;;6.43;;
6531;SDS011;3299;42.004;24.868;2023-04-01T07:57:32;11.73;;;6.72;;
6531;SDS011;3299;42.004;24.868;2023-04-01T08:05:41;11.32;;;6.03;;
6531;SDS011;3299;42.004;24.868;2023-04-01T08:16:18;13.50;;;7.60;;
6531;SDS011;3299;42.004;24.868;2023-04-01T08:21:34;13.05;;;6.43;;
6531;SDS011;3299;42.004;24.868;2023-04-01T08:24:22;7.43;;;5.63;;
6531;SDS011;3299;42.004;24.868;2023-04-01T08:26:51;8.20;;;5.07;;
6531;SDS011;3299;42.004;24.868;2023-04-01T08:29:22;10.90;;;5.22;;
6531;SDS011;3299;42.004;24.868;2023-04-01T08:32:09;6.80;;;5.00;;
6531;SDS011;3299;42.004;24.868;2023-04-01T08:34:38;6.32;;;4.78;;
6531;SDS011;3299;42.004;24.868;2023-04-01T08:37:15;7.28;;;4.97;;
6531;SDS011;3299;42.004;24.868;2023-04-01T08:39:46;7.43;;;6.03;;
6531;SDS011;3299;42.004;24.868;2023-04-01T08:45:15;9.30;;;5.40;;
6531;SDS011;3299;42.004;24.868;2023-04-01T09:01:55;7.78;;;6.03;;
6531;SDS011;3299;42.004;24.868;2023-04-01T09:15:27;26.30;;;6.55;;
6531;SDS011;3299;42.004;24.868;2023-04-01T09:42:54;9.38;;;6.00;;
6531;SDS011;3299;42.004;24.868;2023-04-01T10:14:23;12.77;;;5.95;;
6531;SDS011;3299;42.004;24.868;2023-04-01T10:25:42;13.23;;;6.82;;
6531;SDS011;3299;42.004;24.868;2023-04-01T10:28:30;10.82;;;5.90;;
6531;SDS011;3299;42.004;24.868;2023-04-01T10:51:45;42.53;;;20.10;;
6531;SDS011;3299;42.004;24.868;2023-04-01T10:54:44;12.02;;;6.57;;
6531;SDS011;3299;42.004;24.868;2023-04-01T11:02:52;7.80;;;5.03;;
6531;SDS011;3299;42.004;24.868;2023-04-01T11:21:49;6.78;;;4.57;;
6531;SDS011;3299;42.004;24.868;2023-04-01T12:17:29;5.90;;;3.78;;
6531;SDS011;3299;42.004;24.868;2023-04-01T12:35:10;7.85;;;4.50;;
6531;SDS011;3299;42.004;24.868;2023-04-01T12:40:56;7.50;;;4.25;;
6531;SDS011;3299;42.004;24.868;2023-04-01T12:46:41;9.90;;;4.22;;
6531;SDS011;3299;42.004;24.868;2023-04-01T12:55:21;8.98;;;4.43;;
6531;SDS011;3299;42.004;24.868;2023-04-01T13:28:20;11.07;;;4.85;;
6531;SDS011;3299;42.004;24.868;2023-04-01T13:33:27;6.15;;;4.50;;
6531;SDS011;3299;42.004;24.868;2023-04-01T13:36:11;11.68;;;5.05;;
6531;SDS011;3299;42.004;24.868;2023-04-01T13:44:07;7.30;;;4.90;;
6531;SDS011;3299;42.004;24.868;2023-04-01T13:46:41;10.85;;;5.47;;
6531;SDS011;3299;42.004;24.868;2023-04-01T13:49:52;52.90;;;10.93;;
6531;SDS011;3299;42.004;24.868;2023-04-01T13:55:20;14.80;;;6.75;;
6531;SDS011;3299;42.004;24.868;2023-04-01T14:12:18;10.63;;;5.75;;
6531;SDS011;3299;42.004;24.868;2023-04-01T14:20:59;5.50;;;4.65;;
6531;SDS011;3299;42.004;24.868;2023-04-01T14:24:02;5.43;;;4.78;;
6531;SDS011;3299;42.004;24.868;2023-04-01T14:35:21;5.38;;;4.70;;
6531;SDS011;3299;42.004;24.868;2023-04-01T14:37:53;6.90;;;4.50;;
6531;SDS011;3299;42.004;24.868;2023-04-01T14:40:27;6.28;;;5.30;;
6531;SDS011;3299;42.004;24.868;2023-04-01T14:43:14;7.05;;;4.72;;
6531;SDS011;3299;42.004;24.868;2023-04-01T14:48:50;6.18;;;3.72;;
6531;SDS011;3299;42.004;24.868;2023-04-01T14:51:16;5.22;;;3.65;;
6531;SDS011;3299;42.004;24.868;2023-04-01T14:54:01;3.53;;;3.17;;
6531;SDS011;3299;42.004;24.868;2023-04-01T14:56:37;3.60;;;3.30;;
6531;SDS011;3299;42.004;24.868;2023-04-01T14:59:30;11.15;;;6.80;;
6531;SDS011;3299;42.004;24.868;2023-04-01T15:01:58;11.27;;;7.72;;
6531;SDS011;3299;42.004;24.868;2023-04-01T15:31:53;8.65;;;5.47;;
6531;SDS011;3299;42.004;24.868;2023-04-01T15:37:21;5.93;;;4.07;;
6531;SDS011;3299;42.004;24.868;2023-04-01T15:40:20;3.28;;;2.95;;
6531;SDS011;3299;42.004;24.868;2023-04-01T15:51:02;5.45;;;3.50;;
6531;SDS011;3299;42.004;24.868;2023-04-01T15:53:35;3.78;;;3.38;;
6531;SDS011;3299;42.004;24.868;2023-04-01T16:01:35;4.38;;;2.40;;
6531;SDS011;3299;42.004;24.868;2023-04-01T16:06:57;3.35;;;2.53;;
6531;SDS011;3299;42.004;24.868;2023-04-01T16:15:29;4.32;;;3.28;;
6531;SDS011;3299;42.004;24.868;2023-04-01T16:20:49;4.85;;;3.38;;
6531;SDS011;3299;42.004;24.868;2023-04-01T16:23:18;4.70;;;3.22;;
6531;SDS011;3299;42.004;24.868;2023-04-01T16:26:34;8.68;;;5.43;;
6531;SDS011;3299;42.004;24.868;2023-04-01T16:36:47;6.75;;;5.00;;
6531;SDS011;3299;42.004;24.868;2023-04-01T16:39:26;7.03;;;5.18;;
6531;SDS011;3299;42.004;24.868;2023-04-01T16:42:09;7.60;;;5.32;;
6531;SDS011;3299;42.004;24.868;2023-04-01T16:44:57;6.35;;;4.35;;
6531;SDS011;3299;42.004;24.868;2023-04-01T16:47:41;5.50;;;3.72;;
6531;SDS011;3299;42.004;24.868;2023-04-01T16:50:39;5.65;;;4.78;;
6531;SDS011;3299;42.004;24.868;2023-04-01T16:58:41;4.85;;;3.65;;
6531;SDS011;3299;42.004;24.868;2023-04-01T17:01:16;6.00;;;4.45;;
6531;SDS011;3299;42.004;24.868;2023-04-01T17:03:46;2.97;;;2.72;;
6531;SDS011;3299;42.004;24.868;2023-04-01T17:06:31;3.13;;;2.13;;
6531;SDS011;3299;42.004;24.868;2023-04-01T17:11:57;4.53;;;2.10;;
6531;SDS011;3299;42.004;24.868;2023-04-01T17:27:57;1.40;;;1.30;;
6531;SDS011;3299;42.004;24.868;2023-04-01T17:36:09;3.85;;;2.95;;
6531;SDS011;3299;42.004;24.868;2023-04-01T17:39:09;3.17;;;2.80;;
6531;SDS011;3299;42.004;24.868;2023-04-01T17:42:00;3.42;;;2.85;;
6531;SDS011;3299;42.004;24.868;2023-04-01T17:52:46;1.38;;;0.73;;
6531;SDS011;3299;42.004;24.868;2023-04-01T17:58:20;1.60;;;0.98;;
6531;SDS011;3299;42.004;24.868;2023-04-01T18:25:38;2.80;;;2.33;;
6531;SDS011;3299;42.004;24.868;2023-04-01T18:30:41;1.40;;;1.30;;
6531;SDS011;3299;42.004;24.868;2023-04-01T18:33:16;8.52;;;5.53;;
6531;SDS011;3299;42.004;24.868;2023-04-01T18:35:53;1.90;;;1.80;;
6531;SDS011;3299;42.004;24.868;2023-04-01T18:38:35;7.25;;;5.28;;
6531;SDS011;3299;42.004;24.868;2023-04-01T18:41:15;17.10;;;11.30;;
6531;SDS011;3299;42.004;24.868;2023-04-01T18:49:13;13.80;;;8.20;;
6531;SDS011;3299;42.004;24.868;2023-04-01T18:54:24;1.40;;;1.30;;
6531;SDS011;3299;42.004;24.868;2023-04-01T18:57:07;12.30;;;8.20;;
6531;SDS011;3299;42.004;24.868;2023-04-01T19:02:19;1.85;;;1.67;;
6531;SDS011;3299;42.004;24.868;2023-04-01T19:05:09;3.72;;;3.22;;
6531;SDS011;3299;42.004;24.868;2023-04-01T19:07:47;5.40;;;3.58;;
6531;SDS011;3299;42.004;24.868;2023-04-01T19:13:03;1.88;;;1.63;;
6531;SDS011;3299;42.004;24.868;2023-04-01T19:15:58;1.52;;;1.42;;
6531;SDS011;3299;42.004;24.868;2023-04-01T19:21:33;1.75;;;1.65;;
6531;SDS011;3299;42.004;24.868;2023-04-01T19:27:03;9.48;;;5.57;;
6531;SDS011;3299;42.004;24.868;2023-04-01T19:54:35;3.03;;;2.53;;
6531;SDS011;3299;42.004;24.868;2023-04-01T20:08:58;1.70;;;1.60;;
6531;SDS011;3299;42.004;24.868;2023-04-01T20:19:19;2.63;;;1.73;;
6531;SDS011;3299;42.004;24.868;2023-04-01T20:21:51;3.72;;;2.45;;
6531;SDS011;3299;42.004;24.868;2023-04-01T20:24:23;4.03;;;3.63;;
6531;SDS011;3299;42.004;24.868;2023-04-01T20:27:03;2.15;;;2.05;;
6531;SDS011;3299;42.004;24.868;2023-04-01T20:29:36;2.33;;;2.10;;
6531;SDS011;3299;42.004;24.868;2023-04-01T20:50:52;3.00;;;2.00;;
6531;SDS011;3299;42.004;24.868;2023-04-01T20:59:08;1.88;;;1.65;;
6531;SDS011;3299;42.004;24.868;2023-04-01T21:01:51;2.03;;;1.92;;
6531;SDS011;3299;42.004;24.868;2023-04-01T21:04:34;2.58;;;2.22;;
6531;SDS011;3299;42.004;24.868;2023-04-01T21:25:26;1.38;;;1.35;;
6531;SDS011;3299;42.004;24.868;2023-04-01T21:28:46;1.50;;;1.40;;
6531;SDS011;3299;42.004;24.868;2023-04-01T21:31:12;1.50;;;1.40;;
6531;SDS011;3299;42.004;24.868;2023-04-01T21:36:44;1.13;;;1.13;;
6531;SDS011;3299;42.004;24.868;2023-04-01T21:39:41;1.40;;;1.30;;
6531;SDS011;3299;42.004;24.868;2023-04-01T21:44:43;1.00;;;1.00;;
6531;SDS011;3299;42.004;24.868;2023-04-01T22:06:45;1.10;;;1.10;;
6531;SDS011;3299;42.004;24.868;2023-04-01T22:20:22;0.93;;;0.93;;
6531;SDS011;3299;42.004;24.868;2023-04-01T22:28:09;0.70;;;0.70;;
6531;SDS011;3299;42.004;24.868;2023-04-01T22:30:41;0.77;;;0.75;;
6531;SDS011;3299;42.004;24.868;2023-04-01T22:39:20;0.82;;;0.70;;
6531;SDS011;3299;42.004;24.868;2023-04-01T22:42:00;1.83;;;0.73;;
6531;SDS011;3299;42.004;24.868;2023-04-01T22:49:53;0.80;;;0.80;;
6531;SDS011;3299;42.004;24.868;2023-04-01T22:54:54;0.75;;;0.75;;
6531;SDS011;3299;42.004;24.868;2023-04-01T23:00:23;2.15;;;0.65;;
6531;SDS011;3299;42.004;24.868;2023-04-01T23:05:42;0.55;;;0.55;;
6531;SDS011;3299;42.004;24.868;2023-04-01T23:16:51;0.50;;;0.50;;
6531;SDS011;3299;42.004;24.868;2023-04-01T23:19:40;0.50;;;0.50;;
6531;SDS011;3299;42.004;24.868;2023-04-01T23:22:29;0.55;;;0.55;;
6531;SDS011;3299;42.004;24.868;2023-04-01T23:33:13;0.75;;;0.75;;
6531;SDS011;3299;42.004;24.868;2023-04-01T23:35:58;0.40;;;0.40;;
6531;SDS011;3299;42.004;24.868;2023-04-01T23:38:33;0.65;;;0.65;;
6531;SDS011;3299;42.004;24.868;2023-04-01T23:41:01;0.65;;;0.65;;
6531;SDS011;3299;42.004;24.868;2023-04-01T23:43:28;0.60;;;0.60;;
6531;SDS011;3299;42.004;24.868;2023-04-01T23:45:56;0.70;;;0.70;;
6531;SDS011;3299;42.004;24.868;2023-04-01T23:48:30;0.90;;;0.80;;
6531;SDS011;3299;42.004;24.868;2023-04-01T23:51:01;0.85;;;0.57;;
6531;SDS011;3299;42.004;24.868;2023-04-01T23:53:32;0.90;;;0.90;;
6531;SDS011;3299;42.004;24.868;2023-04-01T23:55:59;0.80;;;0.80;;
6531;SDS011;3299;42.004;24.868;2023-04-01T23:58:48;1.02;;;1.00;;
